createdAt,value
2023-04-07T00:00:00.992Z,77.30
2023-04-07T00:02:18.334Z,71.45
2023-04-07T00:04:25.739Z,75.18
2023-04-07T00:06:33.849Z,72.80
2023-04-07T00:08:40.725Z,67.25
2023-04-07T00:10:49.709Z,74.53
2023-04-07T00:12:56.981Z,68.60
2023-04-07T00:15:04.573Z,69.70
2023-04-07T00:17:11.811Z,66.82
2023-04-07T00:19:19.300Z,68.28
2023-04-07T00:21:26.477Z,77.03
2023-04-07T00:23:34.281Z,75.90
2023-04-07T00:25:41.142Z,71.95
2023-04-07T00:27:50.279Z,72.18
2023-04-07T00:29:57.692Z,75.10
2023-04-07T00:32:05.468Z,76.60
2023-04-07T00:34:12.702Z,73.93
2023-04-07T00:36:22.079Z,74.82
2023-04-07T00:38:29.321Z,72.93
2023-04-07T00:40:36.900Z,72.78
2023-04-07T00:42:43.786Z,74.05
2023-04-07T00:44:52.701Z,71.15
2023-04-07T00:47:01.009Z,73.95
2023-04-07T00:49:11.105Z,77.68
2023-04-07T00:51:19.110Z,72.07
2023-04-07T00:53:26.283Z,80.22
2023-04-07T00:55:33.259Z,73.20
2023-04-07T00:57:41.006Z,71.80
2023-04-07T00:59:48.597Z,77.07
2023-04-07T01:02:05.933Z,75.43
2023-04-07T01:04:23.516Z,71.90
2023-04-07T01:06:34.564Z,77.05
2023-04-07T01:08:53.118Z,76.65
2023-04-07T01:11:06.283Z,73.47
2023-04-07T01:13:21.680Z,71.88
2023-04-07T01:15:33.290Z,77.60
2023-04-07T01:17:46.643Z,75.10
2023-04-07T01:19:59.641Z,73.28
2023-04-07T01:22:10.757Z,73.65
2023-04-07T01:24:49.581Z,74.80
2023-04-07T01:27:00.960Z,71.47
2023-04-07T01:29:41.525Z,68.38
2023-04-07T01:31:50.564Z,68.30
2023-04-07T01:34:00.674Z,68.63
2023-04-07T01:36:09.675Z,72.72
2023-04-07T01:38:18.393Z,70.35
2023-04-07T01:40:26.088Z,75.50
2023-04-07T01:42:34.708Z,72.18
2023-04-07T01:44:43.677Z,68.95
2023-04-07T01:46:52.120Z,62.78
2023-04-07T01:49:01.168Z,62.30
2023-04-07T01:51:10.088Z,56.92
2023-04-07T01:53:18.293Z,55.47
2023-04-07T01:55:26.197Z,62.35
2023-04-07T01:57:42.882Z,59.67
2023-04-07T01:59:59.192Z,57.10
2023-04-07T02:02:10.108Z,65.47
2023-04-07T02:04:24.003Z,59.83
2023-04-07T02:06:36.057Z,57.95
2023-04-07T02:08:50.399Z,56.25
2023-04-07T02:10:58.314Z,63.25
2023-04-07T02:13:10.850Z,64.53
2023-04-07T02:15:21.938Z,65.57
2023-04-07T02:17:32.300Z,64.18
2023-04-07T02:19:39.790Z,67.45
2023-04-07T02:21:49.102Z,60.83
2023-04-07T02:23:56.548Z,60.35
2023-04-07T02:26:04.078Z,64.70
2023-04-07T02:28:11.160Z,62.95
2023-04-07T02:30:20.880Z,67.40
2023-04-07T02:32:28.191Z,65.88
2023-04-07T02:34:35.879Z,59.58
2023-04-07T02:36:42.777Z,63.38
2023-04-07T02:38:49.932Z,58.90
2023-04-07T02:40:57.369Z,58.63
2023-04-07T02:43:06.140Z,60.72
2023-04-07T02:45:14.248Z,59.00
2023-04-07T02:47:23.232Z,61.95
2023-04-07T02:49:30.142Z,62.47
2023-04-07T02:51:37.474Z,62.55
2023-04-07T02:53:44.708Z,56.42
2023-04-07T02:55:52.453Z,62.97
2023-04-07T02:57:59.742Z,62.90
2023-04-07T03:00:18.077Z,62.67
2023-04-07T03:02:39.305Z,54.33
2023-04-07T03:04:46.999Z,59.70
2023-04-07T03:06:54.062Z,58.58
2023-04-07T03:09:01.672Z,57.03
2023-04-07T03:11:08.730Z,62.00
2023-04-07T03:13:17.662Z,57.40
2023-04-07T03:15:24.889Z,55.45
2023-04-07T03:17:32.698Z,60.42
2023-04-07T03:19:41.508Z,57.92
2023-04-07T03:21:49.150Z,59.65
2023-04-07T03:23:56.055Z,56.53
2023-04-07T03:26:03.102Z,56.38
2023-04-07T03:28:14.122Z,56.25
2023-04-07T03:30:21.610Z,58.10
2023-04-07T03:32:28.700Z,56.42
2023-04-07T03:34:36.643Z,53.83
2023-04-07T03:36:45.254Z,60.15
2023-04-07T03:38:52.547Z,57.33
2023-04-07T03:40:59.777Z,54.67
2023-04-07T03:43:13.405Z,59.15
2023-04-07T03:45:20.456Z,56.58
2023-04-07T03:47:29.882Z,55.50
2023-04-07T03:49:41.094Z,56.42
2023-04-07T03:51:50.018Z,49.80
2023-04-07T03:53:58.634Z,52.17
2023-04-07T03:56:11.718Z,53.25
2023-04-07T03:58:25.079Z,49.75
2023-04-07T04:00:34.147Z,53.50
2023-04-07T04:02:47.510Z,53.55
2023-04-07T04:04:59.405Z,54.05
2023-04-07T04:07:08.809Z,53.13
2023-04-07T04:09:21.926Z,50.05
2023-04-07T04:11:29.930Z,51.92
2023-04-07T04:13:40.442Z,49.97
2023-04-07T04:15:47.834Z,57.53
2023-04-07T04:17:57.253Z,51.75
2023-04-07T04:20:05.013Z,53.38
2023-04-07T04:22:22.887Z,55.75
2023-04-07T04:24:34.324Z,59.40
2023-04-07T04:26:43.599Z,51.05
2023-04-07T04:28:52.988Z,56.08
2023-04-07T04:31:01.892Z,52.40
2023-04-07T04:33:12.773Z,55.22
2023-04-07T04:35:36.749Z,54.63
2023-04-07T04:37:49.064Z,62.47
2023-04-07T04:39:56.239Z,57.72
2023-04-07T04:42:04.800Z,54.60
2023-04-07T04:44:15.255Z,52.00
2023-04-07T04:46:22.597Z,56.20
2023-04-07T04:48:30.489Z,57.08
2023-04-07T04:50:37.874Z,52.60
2023-04-07T04:52:51.717Z,51.15
2023-04-07T04:55:02.573Z,55.17
2023-04-07T04:57:09.973Z,52.00
2023-04-07T04:59:18.999Z,52.58
2023-04-07T05:01:46.688Z,54.03
2023-04-07T05:03:56.591Z,53.75
2023-04-07T05:08:16.980Z,56.50
2023-04-07T05:10:24.084Z,59.75
2023-04-07T05:12:31.262Z,64.45
2023-04-07T05:14:41.934Z,53.05
2023-04-07T05:16:49.472Z,58.60
2023-04-07T05:19:01.009Z,53.35
2023-04-07T05:21:08.445Z,50.00
2023-04-07T05:23:18.692Z,55.63
2023-04-07T05:27:39.249Z,53.47
2023-04-07T05:29:51.295Z,56.60
2023-04-07T05:32:05.047Z,51.30
2023-04-07T05:34:12.672Z,59.63
2023-04-07T05:36:25.597Z,51.53
2023-04-07T05:38:37.434Z,54.67
2023-04-07T05:40:51.790Z,54.75
2023-04-07T05:43:06.848Z,52.13
2023-04-07T05:45:15.560Z,54.50
2023-04-07T05:47:27.165Z,54.05
2023-04-07T05:49:34.998Z,55.50
2023-04-07T05:51:47.499Z,51.58
2023-04-07T05:53:57.716Z,56.45
2023-04-07T05:56:06.161Z,54.00
2023-04-07T05:58:30.921Z,56.10
2023-04-07T06:00:38.810Z,52.90
2023-04-07T06:02:52.160Z,54.05
2023-04-07T06:05:00.809Z,49.17
2023-04-07T06:07:09.266Z,50.70
2023-04-07T06:09:18.238Z,54.10
2023-04-07T06:11:25.367Z,50.63
2023-04-07T06:13:35.883Z,51.95
2023-04-07T06:15:43.474Z,50.00
2023-04-07T06:17:51.821Z,52.70
2023-04-07T06:19:58.959Z,51.60
2023-04-07T06:22:06.295Z,51.85
2023-04-07T06:24:13.281Z,54.25
2023-04-07T06:26:22.708Z,52.28
2023-04-07T06:28:30.089Z,54.30
2023-04-07T06:30:39.284Z,52.78
2023-04-07T06:32:49.693Z,57.20
2023-04-07T06:34:58.239Z,53.17
2023-04-07T06:37:07.790Z,51.90
2023-04-07T06:39:20.240Z,54.78
2023-04-07T06:41:28.959Z,54.58
2023-04-07T06:43:36.088Z,49.55
2023-04-07T06:45:44.658Z,56.40
2023-04-07T06:47:52.271Z,51.90
2023-04-07T06:49:59.475Z,50.70
2023-04-07T06:52:07.879Z,54.88
2023-04-07T06:54:16.144Z,52.65
2023-04-07T06:56:24.242Z,55.92
2023-04-07T06:58:32.443Z,59.67
2023-04-07T07:00:40.501Z,58.30
2023-04-07T07:02:47.937Z,60.58
2023-04-07T07:04:55.624Z,57.20
2023-04-07T07:07:02.573Z,56.20
2023-04-07T07:09:09.688Z,57.40
2023-04-07T07:11:16.918Z,52.22
2023-04-07T07:13:25.992Z,56.08
2023-04-07T07:15:34.881Z,50.08
2023-04-07T07:17:42.595Z,56.42
2023-04-07T07:19:49.790Z,51.70
2023-04-07T07:21:57.126Z,51.08
2023-04-07T07:24:04.315Z,50.75
2023-04-07T07:26:11.951Z,52.28
2023-04-07T07:28:19.436Z,47.03
2023-04-07T07:30:27.980Z,49.05
2023-04-07T07:32:37.178Z,47.10
2023-04-07T07:34:50.613Z,52.38
2023-04-07T07:36:57.944Z,52.42
2023-04-07T07:39:06.474Z,51.65
2023-04-07T07:41:13.355Z,50.75
2023-04-07T07:43:20.818Z,47.35
2023-04-07T07:45:27.744Z,51.08
2023-04-07T07:47:38.632Z,54.33
2023-04-07T07:49:45.912Z,45.57
2023-04-07T07:51:53.659Z,50.75
2023-04-07T07:54:01.033Z,52.30
2023-04-07T07:56:08.490Z,51.85
2023-04-07T07:58:15.649Z,57.53
2023-04-07T08:00:23.338Z,50.15
2023-04-07T08:02:32.470Z,52.72
2023-04-07T08:04:41.612Z,52.40
2023-04-07T08:06:49.081Z,52.47
2023-04-07T08:08:56.572Z,55.63
2023-04-07T08:11:04.010Z,52.50
2023-04-07T08:13:11.040Z,54.17
2023-04-07T08:15:18.032Z,57.58
2023-04-07T08:17:25.299Z,57.30
2023-04-07T08:19:32.528Z,57.80
2023-04-07T08:21:41.980Z,55.30
2023-04-07T08:23:49.499Z,56.67
2023-04-07T08:25:58.067Z,50.33
2023-04-07T08:28:04.947Z,49.13
2023-04-07T08:30:12.737Z,43.92
2023-04-07T08:32:19.745Z,49.95
2023-04-07T08:34:27.216Z,48.53
2023-04-07T08:36:34.548Z,45.05
2023-04-07T08:38:43.512Z,44.17
2023-04-07T08:41:00.330Z,48.38
2023-04-07T08:43:11.647Z,44.78
2023-04-07T08:45:20.326Z,52.78
2023-04-07T08:47:29.982Z,43.53
2023-04-07T08:49:39.291Z,40.50
2023-04-07T08:51:50.561Z,40.53
2023-04-07T08:54:07.579Z,45.22
2023-04-07T08:56:17.015Z,40.67
2023-04-07T08:58:24.802Z,38.85
2023-04-07T09:00:32.959Z,44.15
2023-04-07T09:02:42.171Z,44.17
2023-04-07T09:04:49.935Z,43.83
2023-04-07T09:06:56.754Z,44.08
2023-04-07T09:09:06.881Z,43.22
2023-04-07T09:11:24.855Z,39.72
2023-04-07T09:13:34.584Z,41.47
2023-04-07T09:15:42.478Z,46.47
2023-04-07T09:17:50.528Z,46.33
2023-04-07T09:19:59.772Z,46.50
2023-04-07T09:22:07.204Z,42.30
2023-04-07T09:24:27.799Z,52.38
2023-04-07T09:26:38.310Z,47.67
2023-04-07T09:28:47.093Z,43.97
2023-04-07T09:30:58.092Z,47.30
2023-04-07T09:33:05.832Z,53.03
2023-04-07T09:35:13.737Z,43.28
2023-04-07T09:37:26.755Z,44.10
2023-04-07T09:39:36.292Z,47.70
2023-04-07T09:41:56.731Z,44.30
2023-04-07T09:44:04.324Z,44.95
2023-04-07T09:46:16.308Z,40.38
2023-04-07T09:48:24.525Z,42.45
2023-04-07T09:50:39.078Z,45.47
2023-04-07T09:52:55.886Z,41.85
2023-04-07T09:55:04.913Z,42.63
2023-04-07T09:57:13.993Z,41.13
2023-04-07T09:59:21.839Z,41.20
2023-04-07T10:01:28.882Z,42.22
2023-04-07T10:03:37.501Z,45.60
2023-04-07T10:05:45.585Z,41.30
2023-04-07T10:07:53.540Z,40.65
2023-04-07T10:10:01.675Z,40.10
2023-04-07T10:12:11.014Z,37.78
2023-04-07T10:14:18.612Z,39.38
2023-04-07T10:16:27.265Z,37.83
2023-04-07T10:18:35.585Z,39.97
2023-04-07T10:20:44.716Z,39.35
2023-04-07T10:23:04.644Z,37.97
2023-04-07T10:25:17.665Z,38.30
2023-04-07T10:27:32.834Z,43.85
2023-04-07T10:29:44.729Z,40.40
2023-04-07T10:31:52.468Z,36.10
2023-04-07T10:33:59.457Z,37.38
2023-04-07T10:36:10.957Z,41.22
2023-04-07T10:38:18.456Z,39.70
2023-04-07T10:40:33.299Z,38.55
2023-04-07T10:42:53.724Z,40.38
2023-04-07T10:45:01.884Z,40.88
2023-04-07T10:47:09.831Z,42.75
2023-04-07T10:49:18.760Z,44.10
2023-04-07T10:51:26.339Z,47.13
2023-04-07T10:53:34.042Z,45.35
2023-04-07T10:55:43.007Z,40.88
2023-04-07T10:58:18.143Z,40.92
2023-04-07T11:00:26.259Z,40.72
2023-04-07T11:02:37.647Z,42.33
2023-04-07T11:04:46.748Z,44.55
2023-04-07T11:06:53.887Z,42.28
2023-04-07T11:09:01.228Z,43.30
2023-04-07T11:11:10.222Z,42.65
2023-04-07T11:13:19.578Z,40.22
2023-04-07T11:15:27.085Z,45.47
2023-04-07T11:17:34.649Z,45.00
2023-04-07T11:19:55.285Z,40.70
2023-04-07T11:24:40.390Z,40.45
2023-04-07T11:26:50.501Z,41.15
2023-04-07T11:29:00.945Z,44.15
2023-04-07T11:31:08.358Z,47.55
2023-04-07T11:33:20.279Z,47.28
2023-04-07T11:35:28.634Z,43.83
2023-04-07T11:37:35.662Z,40.17
2023-04-07T11:39:42.903Z,37.70
2023-04-07T11:41:51.615Z,42.40
2023-04-07T11:44:14.160Z,39.13
2023-04-07T11:46:22.128Z,37.83
2023-04-07T11:48:33.848Z,39.83
2023-04-07T11:50:44.772Z,40.83
2023-04-07T11:52:52.817Z,40.35
2023-04-07T11:55:01.228Z,38.15
2023-04-07T11:57:08.406Z,41.17
2023-04-07T11:59:25.467Z,36.22
2023-04-07T12:01:44.333Z,39.85
2023-04-07T12:04:03.078Z,38.33
2023-04-07T12:06:10.475Z,38.45
2023-04-07T12:08:18.730Z,41.72
2023-04-07T12:10:28.418Z,40.85
2023-04-07T12:12:35.390Z,42.25
2023-04-07T12:14:44.260Z,40.42
2023-04-07T12:16:51.590Z,39.78
2023-04-07T12:18:59.146Z,40.35
2023-04-07T12:21:06.010Z,40.55
2023-04-07T12:23:13.342Z,46.45
2023-04-07T12:25:20.271Z,40.03
2023-04-07T12:27:41.623Z,44.20
2023-04-07T12:29:51.681Z,42.50
2023-04-07T12:31:59.047Z,39.80
2023-04-07T12:34:07.483Z,42.78
2023-04-07T12:36:14.968Z,40.53
2023-04-07T12:38:22.097Z,43.00
2023-04-07T12:40:30.413Z,50.30
2023-04-07T12:42:37.392Z,42.60
2023-04-07T12:47:06.851Z,46.95
2023-04-07T12:49:14.137Z,46.88
2023-04-07T12:51:21.171Z,51.58
2023-04-07T12:53:28.482Z,45.80
2023-04-07T12:55:38.861Z,48.15
2023-04-07T12:58:06.259Z,45.85
2023-04-07T13:00:14.121Z,41.22
2023-04-07T13:02:23.157Z,48.85
2023-04-07T13:04:31.803Z,44.20
2023-04-07T13:06:39.295Z,44.83
2023-04-07T13:08:46.364Z,45.50
2023-04-07T13:10:54.012Z,48.03
2023-04-07T13:13:02.979Z,41.42
2023-04-07T13:15:12.626Z,43.08
2023-04-07T13:17:22.141Z,42.58
2023-04-07T13:19:29.652Z,46.72
2023-04-07T13:21:46.193Z,48.20
2023-04-07T13:23:54.743Z,46.22
2023-04-07T13:26:01.888Z,44.65
2023-04-07T13:28:09.489Z,44.55
2023-04-07T13:32:45.131Z,44.45
2023-04-07T13:34:52.019Z,43.72
2023-04-07T13:36:59.254Z,41.25
2023-04-07T13:39:06.439Z,41.22
2023-04-07T13:43:38.102Z,42.70
2023-04-07T13:45:46.768Z,44.35
2023-04-07T13:47:57.064Z,42.15
2023-04-07T13:50:04.721Z,46.85
2023-04-07T13:52:11.847Z,41.30
2023-04-07T13:54:19.801Z,43.05
2023-04-07T13:56:26.673Z,45.03
2023-04-07T13:58:33.854Z,42.95
2023-04-07T14:00:48.532Z,40.83
2023-04-07T14:02:58.799Z,45.85
2023-04-07T14:05:05.851Z,47.30
2023-04-07T14:07:13.179Z,42.85
2023-04-07T14:09:20.053Z,46.05
2023-04-07T14:11:31.336Z,42.58
2023-04-07T14:13:42.153Z,49.40
2023-04-07T14:15:55.982Z,45.47
2023-04-07T14:18:04.901Z,43.47
2023-04-07T14:20:12.942Z,45.83
2023-04-07T14:22:19.848Z,43.92
2023-04-07T14:24:27.169Z,42.20
2023-04-07T14:26:33.989Z,45.50
2023-04-07T14:28:41.120Z,46.20
2023-04-07T14:30:48.465Z,45.50
2023-04-07T14:32:57.594Z,42.65
2023-04-07T14:35:06.608Z,46.60
2023-04-07T14:37:15.017Z,41.65
2023-04-07T14:39:22.150Z,42.88
2023-04-07T14:41:29.943Z,46.17
2023-04-07T14:43:37.080Z,45.90
2023-04-07T14:45:44.204Z,43.78
2023-04-07T14:47:51.150Z,48.67
2023-04-07T14:49:58.725Z,43.63
2023-04-07T14:52:07.800Z,45.97
2023-04-07T14:54:15.255Z,44.75
2023-04-07T14:58:46.048Z,46.90
2023-04-07T15:01:13.084Z,53.58
2023-04-07T15:03:20.406Z,48.47
2023-04-07T15:05:29.719Z,44.47
2023-04-07T15:07:39.241Z,49.67
2023-04-07T15:09:46.470Z,50.42
2023-04-07T15:11:54.009Z,51.50
2023-04-07T15:14:01.806Z,44.97
2023-04-07T15:16:14.479Z,44.70
2023-04-07T15:18:21.444Z,49.22
2023-04-07T15:20:28.880Z,44.97
2023-04-07T15:22:37.799Z,43.65
2023-04-07T15:24:45.650Z,51.03
2023-04-07T15:26:52.935Z,47.08
2023-04-07T15:29:00.429Z,48.53
2023-04-07T15:31:10.764Z,46.03
2023-04-07T15:33:18.521Z,44.65
2023-04-07T15:35:25.821Z,40.95
2023-04-07T15:37:33.195Z,43.15
2023-04-07T15:39:41.861Z,41.83
2023-04-07T15:41:49.143Z,38.90
2023-04-07T15:43:56.016Z,40.85
2023-04-07T15:46:03.262Z,45.97
2023-04-07T15:48:10.179Z,41.58
2023-04-07T15:50:17.355Z,47.90
2023-04-07T15:52:24.589Z,46.47
2023-04-07T15:54:31.922Z,43.20
2023-04-07T15:56:40.795Z,44.35
2023-04-07T15:58:48.233Z,39.53
2023-04-07T16:00:55.684Z,42.08
2023-04-07T16:03:04.163Z,43.17
2023-04-07T16:05:11.626Z,42.67
2023-04-07T16:07:19.015Z,45.42
2023-04-07T16:09:26.494Z,47.47
2023-04-07T16:11:33.626Z,42.72
2023-04-07T16:13:42.392Z,40.55
2023-04-07T16:15:49.779Z,44.47
2023-04-07T16:17:57.326Z,42.63
2023-04-07T16:20:05.422Z,47.35
2023-04-07T16:22:13.173Z,48.58
2023-04-07T16:24:20.054Z,43.30
2023-04-07T16:26:27.328Z,44.03
2023-04-07T16:28:34.258Z,43.35
2023-04-07T16:30:43.485Z,46.08
2023-04-07T16:32:50.851Z,51.10
2023-04-07T16:34:57.899Z,49.20
2023-04-07T16:37:05.389Z,43.40
2023-04-07T16:39:12.877Z,48.25
2023-04-07T16:41:30.453Z,56.45
2023-04-07T16:43:37.946Z,56.08
2023-04-07T16:45:54.004Z,60.55
2023-04-07T16:48:01.825Z,58.72
2023-04-07T16:50:09.472Z,60.13
2023-04-07T16:52:18.235Z,54.90
2023-04-07T16:54:26.138Z,56.60
2023-04-07T16:56:33.691Z,55.75
2023-04-07T16:58:40.862Z,50.60
2023-04-07T17:00:50.198Z,53.63
2023-04-07T17:02:57.596Z,51.78
2023-04-07T17:05:05.331Z,54.85
2023-04-07T17:07:12.876Z,54.05
2023-04-07T17:09:20.969Z,50.17
2023-04-07T17:11:27.849Z,44.75
2023-04-07T17:13:45.058Z,47.47
2023-04-07T17:15:54.384Z,44.13
2023-04-07T17:18:02.572Z,48.17
2023-04-07T17:20:10.594Z,47.17
2023-04-07T17:22:18.131Z,47.20
2023-04-07T17:24:25.416Z,46.63
2023-04-07T17:26:32.920Z,44.83
2023-04-07T17:28:39.789Z,42.15
2023-04-07T17:30:50.045Z,46.22
2023-04-07T17:33:18.870Z,41.22
2023-04-07T17:35:26.204Z,44.95
2023-04-07T17:37:33.081Z,38.42
2023-04-07T17:39:40.262Z,45.97
2023-04-07T17:41:47.851Z,43.28
2023-04-07T17:43:56.006Z,39.28
2023-04-07T17:46:04.336Z,47.88
2023-04-07T17:48:13.103Z,41.67
2023-04-07T17:50:21.955Z,44.13
2023-04-07T17:52:30.589Z,43.10
2023-04-07T17:54:37.452Z,42.75
2023-04-07T17:56:44.933Z,40.38
2023-04-07T17:58:52.168Z,40.63
2023-04-07T18:03:17.274Z,37.85
2023-04-07T18:05:26.151Z,40.38
2023-04-07T18:07:34.513Z,40.25
2023-04-07T18:09:42.829Z,42.80
2023-04-07T18:11:50.310Z,52.60
2023-04-07T18:13:57.490Z,41.28
2023-04-07T18:16:09.136Z,37.85
2023-04-07T18:18:16.310Z,41.78
2023-04-07T18:20:25.438Z,41.83
2023-04-07T18:22:32.516Z,43.50
2023-04-07T18:24:40.074Z,46.22
2023-04-07T18:26:47.084Z,44.65
2023-04-07T18:28:54.367Z,42.53
2023-04-07T18:31:05.677Z,35.65
2023-04-07T18:33:13.132Z,38.60
2023-04-07T18:35:20.311Z,41.45
2023-04-07T18:37:30.524Z,42.10
2023-04-07T18:39:37.700Z,41.38
2023-04-07T18:41:46.535Z,45.67
2023-04-07T18:43:55.645Z,44.80
2023-04-07T18:46:03.237Z,46.22
2023-04-07T18:48:10.681Z,49.00
2023-04-07T18:52:40.403Z,48.13
2023-04-07T18:54:48.502Z,50.80
2023-04-07T18:56:55.582Z,43.28
2023-04-07T18:59:02.766Z,44.40
2023-04-07T19:01:20.913Z,43.58
2023-04-07T19:03:29.214Z,50.05
2023-04-07T19:05:36.443Z,47.22
2023-04-07T19:07:45.414Z,45.63
2023-04-07T19:09:54.551Z,46.50
2023-04-07T19:12:01.620Z,44.00
2023-04-07T19:14:08.547Z,46.35
2023-04-07T19:16:16.325Z,46.33
2023-04-07T19:18:23.273Z,44.63
2023-04-07T19:20:44.732Z,42.38
2023-04-07T19:22:53.297Z,43.25
2023-04-07T19:25:00.380Z,38.00
2023-04-07T19:27:07.612Z,41.63
2023-04-07T19:29:15.264Z,37.25
2023-04-07T19:31:22.210Z,38.95
2023-04-07T19:33:29.563Z,38.97
2023-04-07T19:35:39.888Z,41.13
2023-04-07T19:37:48.286Z,39.72
2023-04-07T19:40:02.746Z,41.38
2023-04-07T19:42:11.039Z,40.97
2023-04-07T19:44:19.249Z,41.55
2023-04-07T19:46:26.932Z,38.45
2023-04-07T19:48:34.275Z,44.40
2023-04-07T19:50:44.682Z,37.97
2023-04-07T19:52:54.279Z,39.65
2023-04-07T19:55:04.441Z,34.50
2023-04-07T19:57:12.627Z,32.65
2023-04-07T19:59:20.074Z,36.75
2023-04-07T20:01:27.913Z,38.72
2023-04-07T20:03:35.139Z,37.15
2023-04-07T20:05:42.376Z,37.70
2023-04-07T20:07:49.358Z,40.28
2023-04-07T20:10:07.605Z,37.47
2023-04-07T20:12:18.266Z,35.72
2023-04-07T20:14:25.601Z,39.38
2023-04-07T20:16:35.699Z,40.22
2023-04-07T20:18:42.833Z,39.63
2023-04-07T20:20:51.185Z,41.05
2023-04-07T20:22:58.421Z,38.55
2023-04-07T20:25:06.531Z,31.88
2023-04-07T20:27:15.545Z,32.95
2023-04-07T20:29:22.685Z,32.47
2023-04-07T20:31:29.982Z,36.28
2023-04-07T20:33:37.500Z,33.17
2023-04-07T20:35:44.908Z,32.00
2023-04-07T20:37:52.191Z,31.80
2023-04-07T20:40:03.911Z,30.95
2023-04-07T20:42:11.246Z,34.30
2023-04-07T20:44:20.119Z,32.70
2023-04-07T20:46:27.375Z,30.30
2023-04-07T20:48:34.633Z,32.20
2023-04-07T20:50:41.926Z,34.50
2023-04-07T20:52:49.462Z,33.92
2023-04-07T20:54:56.336Z,31.83
2023-04-07T20:57:03.521Z,31.48
2023-04-07T20:59:10.748Z,30.20
2023-04-07T21:01:20.028Z,30.15
2023-04-07T21:03:27.276Z,33.42
2023-04-07T21:05:34.398Z,29.05
2023-04-07T21:07:41.266Z,27.98
2023-04-07T21:12:11.246Z,31.38
2023-04-07T21:14:18.789Z,28.80
2023-04-07T21:16:27.767Z,30.08
2023-04-07T21:18:35.097Z,26.80
2023-04-07T21:20:42.451Z,31.88
2023-04-07T21:22:49.507Z,31.17
2023-04-07T21:24:57.392Z,27.10
2023-04-07T21:27:04.899Z,30.15
2023-04-07T21:29:11.832Z,29.45
2023-04-07T21:31:26.713Z,28.73
2023-04-07T21:33:33.966Z,31.52
2023-04-07T21:35:41.544Z,31.27
2023-04-07T21:37:48.635Z,27.80
2023-04-07T21:39:57.302Z,28.42
2023-04-07T21:42:04.328Z,31.90
2023-04-07T21:44:14.072Z,25.67
2023-04-07T21:46:21.411Z,29.60
2023-04-07T21:48:31.454Z,26.10
2023-04-07T21:50:39.814Z,27.98
2023-04-07T21:52:47.200Z,33.03
2023-04-07T21:54:54.132Z,28.92
2023-04-07T21:57:02.075Z,28.80
2023-04-07T21:59:09.110Z,28.80
2023-04-07T22:01:16.378Z,28.17
2023-04-07T22:03:23.779Z,32.30
2023-04-07T22:05:33.159Z,31.13
2023-04-07T22:07:40.448Z,29.40
2023-04-07T22:09:48.190Z,28.88
2023-04-07T22:11:55.164Z,35.58
2023-04-07T22:14:02.860Z,29.25
2023-04-07T22:16:10.115Z,31.45
2023-04-07T22:18:17.427Z,28.35
2023-04-07T22:20:24.353Z,34.55
2023-04-07T22:22:33.579Z,31.95
2023-04-07T22:24:40.763Z,35.22
2023-04-07T22:26:48.252Z,30.55
2023-04-07T22:28:55.265Z,27.15
2023-04-07T22:31:02.519Z,31.02
2023-04-07T22:33:10.357Z,31.90
2023-04-07T22:35:17.742Z,30.40
2023-04-07T22:37:24.722Z,33.65
2023-04-07T22:39:33.547Z,30.20
2023-04-07T22:41:40.839Z,30.25
2023-04-07T22:43:48.265Z,37.10
2023-04-07T22:45:55.297Z,33.65
2023-04-07T22:48:02.520Z,33.08
2023-04-07T22:50:10.573Z,33.22
2023-04-07T22:52:18.010Z,37.30
2023-04-07T22:54:24.943Z,30.60
2023-04-07T22:56:33.912Z,36.38
2023-04-07T22:58:40.787Z,32.03
2023-04-07T23:00:47.937Z,30.38
2023-04-07T23:02:55.358Z,29.65
2023-04-07T23:05:02.841Z,34.58
2023-04-07T23:07:10.034Z,32.80
2023-04-07T23:09:20.897Z,32.08
2023-04-07T23:11:28.022Z,35.65
2023-04-07T23:13:37.201Z,32.15
2023-04-07T23:15:44.328Z,34.40
2023-04-07T23:17:51.882Z,35.40
2023-04-07T23:19:58.699Z,35.05
2023-04-07T23:22:05.829Z,39.45
2023-04-07T23:24:12.956Z,36.70
2023-04-07T23:26:20.338Z,34.22
2023-04-07T23:28:29.055Z,33.45
2023-04-07T23:30:38.592Z,35.00
2023-04-07T23:32:45.549Z,36.53
2023-04-07T23:34:53.074Z,39.22
2023-04-07T23:37:00.299Z,33.38
2023-04-07T23:39:14.081Z,33.80
2023-04-07T23:41:21.573Z,34.78
2023-04-07T23:43:29.007Z,38.67
2023-04-07T23:45:38.014Z,37.30
2023-04-07T23:47:45.262Z,36.55
2023-04-07T23:49:52.713Z,32.15
2023-04-07T23:52:00.191Z,34.95
2023-04-07T23:54:07.430Z,39.25
2023-04-07T23:56:15.015Z,36.72
2023-04-07T23:58:22.240Z,33.85
